createdAt,value
2019-03-29T00:01:05.582Z,90.40
2019-03-29T00:03:33.418Z,90.60
2019-03-29T00:06:02.995Z,90.60
2019-03-29T00:08:30.892Z,90.60
2019-03-29T00:10:58.776Z,90.70
2019-03-29T00:13:26.822Z,90.70
2019-03-29T00:15:54.769Z,90.70
2019-03-29T00:18:22.705Z,90.70
2019-03-29T00:20:50.651Z,90.70
2019-03-29T00:23:18.630Z,90.70
2019-03-29T00:25:46.442Z,90.70
2019-03-29T00:28:14.394Z,90.70
2019-03-29T00:30:42.242Z,90.80
2019-03-29T00:33:10.112Z,90.90
2019-03-29T00:35:38.153Z,91.10
2019-03-29T00:38:06.216Z,91.30
2019-03-29T00:40:34.133Z,91.60
2019-03-29T00:43:02.071Z,91.80
2019-03-29T00:45:30.135Z,92.00
2019-03-29T00:47:58.629Z,92.20
2019-03-29T00:50:26.539Z,92.30
2019-03-29T00:52:54.447Z,92.40
2019-03-29T00:55:22.309Z,92.40
2019-03-29T00:57:50.586Z,92.30
2019-03-29T01:00:18.522Z,92.40
2019-03-29T01:02:46.491Z,92.30
2019-03-29T01:05:14.512Z,92.20
2019-03-29T01:07:42.371Z,92.20
2019-03-29T01:10:11.911Z,91.90
2019-03-29T01:12:39.779Z,91.90
2019-03-29T01:15:08.953Z,91.80
2019-03-29T01:17:36.902Z,91.80
2019-03-29T01:20:07.945Z,91.80
2019-03-29T01:22:35.872Z,91.80
2019-03-29T01:25:04.580Z,91.80
2019-03-29T01:27:32.496Z,91.80
2019-03-29T01:30:00.378Z,91.80
2019-03-29T01:32:28.358Z,91.80
2019-03-29T01:34:56.588Z,91.70
2019-03-29T01:37:27.180Z,91.60
2019-03-29T01:39:56.260Z,91.50
2019-03-29T01:42:24.312Z,91.40
2019-03-29T01:44:52.160Z,91.30
2019-03-29T01:47:21.321Z,91.30
2019-03-29T01:49:49.307Z,91.20
2019-03-29T01:52:17.191Z,91.10
2019-03-29T01:54:45.088Z,91.00
2019-03-29T01:57:14.778Z,91.00
2019-03-29T01:59:43.818Z,91.00
2019-03-29T02:02:13.188Z,90.90
2019-03-29T02:04:42.778Z,90.70
2019-03-29T02:07:11.939Z,90.70
2019-03-29T02:09:40.145Z,90.80
2019-03-29T02:12:08.033Z,90.50
2019-03-29T02:14:36.127Z,90.40
2019-03-29T02:17:03.970Z,90.20
2019-03-29T02:19:31.976Z,90.10
2019-03-29T02:22:00.087Z,90.00
2019-03-29T02:24:28.395Z,90.00
2019-03-29T02:26:56.379Z,89.50
2019-03-29T02:29:24.516Z,89.30
2019-03-29T02:31:52.408Z,89.10
2019-03-29T02:34:20.293Z,88.90
2019-03-29T02:36:49.763Z,88.10
2019-03-29T02:39:17.842Z,87.60
2019-03-29T02:41:46.845Z,86.90
2019-03-29T02:44:18.388Z,86.70
2019-03-29T02:46:46.300Z,86.40
2019-03-29T02:49:14.261Z,86.10
2019-03-29T02:51:42.170Z,86.00
2019-03-29T02:54:11.250Z,85.80
2019-03-29T02:56:39.125Z,85.70
2019-03-29T02:59:07.149Z,85.80
2019-03-29T03:01:35.213Z,85.80
2019-03-29T03:04:03.070Z,86.00
2019-03-29T03:06:30.960Z,86.00
2019-03-29T03:09:13.095Z,86.00
2019-03-29T03:11:29.701Z,86.00
2019-03-29T03:13:57.745Z,85.70
2019-03-29T03:16:25.625Z,86.40
2019-03-29T03:18:54.538Z,86.40
2019-03-29T03:21:23.561Z,85.50
2019-03-29T03:23:51.410Z,85.40
2019-03-29T03:26:19.404Z,85.30
2019-03-29T03:28:47.211Z,85.20
2019-03-29T03:31:15.387Z,85.00
2019-03-29T03:33:43.371Z,84.80
2019-03-29T03:36:11.330Z,84.40
2019-03-29T03:38:39.143Z,84.20
2019-03-29T03:41:07.029Z,83.80
2019-03-29T03:43:36.504Z,83.30
2019-03-29T03:46:07.233Z,83.00
2019-03-29T03:48:35.141Z,82.70
2019-03-29T03:51:03.034Z,82.70
2019-03-29T03:53:30.842Z,82.60
2019-03-29T03:55:58.759Z,82.40
2019-03-29T03:58:28.280Z,82.00
2019-03-29T04:00:56.552Z,82.00
2019-03-29T04:03:24.699Z,81.70
2019-03-29T04:05:52.556Z,81.60
2019-03-29T04:08:20.527Z,81.50
2019-03-29T04:10:48.908Z,81.50
2019-03-29T04:13:16.763Z,81.20
2019-03-29T04:15:44.652Z,81.20
2019-03-29T04:18:15.704Z,80.90
2019-03-29T04:20:42.223Z,80.60
2019-03-29T04:23:10.177Z,80.10
2019-03-29T04:25:38.400Z,80.10
2019-03-29T04:28:07.586Z,79.70
2019-03-29T04:30:35.603Z,78.90
2019-03-29T04:33:03.633Z,78.60
2019-03-29T04:35:32.520Z,78.60
2019-03-29T04:38:00.529Z,78.40
2019-03-29T04:40:29.470Z,78.10
2019-03-29T04:42:57.347Z,77.90
2019-03-29T04:45:26.845Z,77.60
2019-03-29T04:47:56.001Z,77.60
2019-03-29T04:50:23.998Z,77.50
2019-03-29T04:52:51.904Z,77.60
2019-03-29T04:55:19.754Z,77.30
2019-03-29T04:57:47.819Z,77.40
2019-03-29T05:00:16.318Z,78.20
2019-03-29T05:02:44.321Z,77.30
2019-03-29T05:05:12.237Z,77.30
2019-03-29T05:07:40.163Z,77.30
2019-03-29T05:10:21.080Z,77.50
2019-03-29T05:12:40.658Z,77.50
2019-03-29T05:15:11.728Z,77.50
2019-03-29T05:17:39.760Z,77.40
2019-03-29T05:20:08.296Z,77.40
2019-03-29T05:22:36.419Z,77.20
2019-03-29T05:25:04.906Z,77.10
2019-03-29T05:27:34.963Z,77.10
2019-03-29T05:30:02.756Z,76.90
2019-03-29T05:32:30.718Z,76.30
2019-03-29T05:34:59.223Z,76.00
2019-03-29T05:37:27.297Z,75.80
2019-03-29T05:39:55.325Z,75.60
2019-03-29T05:42:23.743Z,75.60
2019-03-29T05:44:51.571Z,75.40
2019-03-29T05:47:19.691Z,75.30
2019-03-29T05:49:47.792Z,75.30
2019-03-29T05:52:15.735Z,75.70
2019-03-29T05:54:43.716Z,74.90
2019-03-29T05:57:11.822Z,74.90
2019-03-29T05:59:39.942Z,74.80
2019-03-29T06:02:07.811Z,74.70
2019-03-29T06:04:35.734Z,74.20
2019-03-29T06:07:05.253Z,73.10
2019-03-29T06:09:34.962Z,72.80
2019-03-29T06:12:02.750Z,73.00
2019-03-29T06:14:30.663Z,73.20
2019-03-29T06:16:58.506Z,73.60
2019-03-29T06:19:26.404Z,74.10
2019-03-29T06:21:54.314Z,74.40
2019-03-29T06:24:22.292Z,74.80
2019-03-29T06:26:50.265Z,75.00
2019-03-29T06:29:19.841Z,75.30
2019-03-29T06:31:47.816Z,75.60
2019-03-29T06:34:15.903Z,75.80
2019-03-29T06:36:43.910Z,75.90
2019-03-29T06:39:12.041Z,76.70
2019-03-29T06:41:40.057Z,75.90
2019-03-29T06:44:09.387Z,75.90
2019-03-29T06:46:37.388Z,75.90
2019-03-29T06:49:05.407Z,75.90
2019-03-29T06:51:33.680Z,75.80
2019-03-29T06:54:07.457Z,75.20
2019-03-29T06:56:35.715Z,74.80
2019-03-29T06:59:03.944Z,74.80
2019-03-29T07:01:32.126Z,74.40
2019-03-29T07:04:00.360Z,74.30
2019-03-29T07:06:30.580Z,74.20
2019-03-29T07:08:58.177Z,74.00
2019-03-29T07:11:26.516Z,73.40
2019-03-29T07:13:57.806Z,73.30
2019-03-29T07:16:25.866Z,73.00
2019-03-29T07:18:54.142Z,72.30
2019-03-29T07:21:22.468Z,72.30
2019-03-29T07:23:54.780Z,71.60
2019-03-29T07:26:22.907Z,71.60
2019-03-29T07:28:51.003Z,70.90
2019-03-29T07:31:19.319Z,70.60
2019-03-29T07:33:50.403Z,70.60
2019-03-29T07:36:18.866Z,70.90
2019-03-29T07:38:48.671Z,70.90
2019-03-29T07:41:31.199Z,71.20
2019-03-29T07:43:47.895Z,69.70
2019-03-29T07:46:16.423Z,69.40
2019-03-29T07:48:44.445Z,69.20
2019-03-29T07:51:12.614Z,69.10
2019-03-29T07:53:44.782Z,68.70
2019-03-29T07:56:11.806Z,67.90
2019-03-29T07:58:40.187Z,67.30
2019-03-29T08:01:08.754Z,67.10
2019-03-29T08:03:38.380Z,66.80
2019-03-29T08:06:06.315Z,66.90
2019-03-29T08:08:34.753Z,66.70
2019-03-29T08:11:03.775Z,67.10
2019-03-29T08:13:35.798Z,66.80
2019-03-29T08:16:07.292Z,66.90
2019-03-29T08:18:35.415Z,66.80
2019-03-29T08:21:03.627Z,66.50
2019-03-29T08:23:31.979Z,66.30
2019-03-29T08:26:01.994Z,65.80
2019-03-29T08:28:30.086Z,65.70
2019-03-29T08:30:58.037Z,65.80
2019-03-29T08:33:26.007Z,65.20
2019-03-29T08:35:56.138Z,64.70
2019-03-29T08:38:24.006Z,64.60
2019-03-29T08:40:52.303Z,64.20
2019-03-29T08:43:20.529Z,64.40
2019-03-29T08:45:48.701Z,64.10
2019-03-29T08:48:16.591Z,64.00
2019-03-29T08:50:44.714Z,63.50
2019-03-29T08:53:14.023Z,63.10
2019-03-29T08:55:45.934Z,62.80
2019-03-29T08:58:11.832Z,61.90
2019-03-29T09:00:39.751Z,60.50
2019-03-29T09:03:11.904Z,59.90
2019-03-29T09:05:44.642Z,60.10
2019-03-29T09:08:12.848Z,59.50
2019-03-29T09:10:40.747Z,58.80
2019-03-29T09:13:10.537Z,58.80
2019-03-29T09:15:39.528Z,58.10
2019-03-29T09:18:07.632Z,58.10
2019-03-29T09:20:35.778Z,57.90
2019-03-29T09:23:06.300Z,58.00
2019-03-29T09:25:34.918Z,57.50
2019-03-29T09:28:03.024Z,57.50
2019-03-29T09:30:32.136Z,57.60
2019-03-29T09:33:01.010Z,57.40
2019-03-29T09:35:29.710Z,56.90
2019-03-29T09:37:58.667Z,56.00
2019-03-29T09:40:30.059Z,56.00
2019-03-29T09:43:08.825Z,56.10
2019-03-29T09:45:31.947Z,56.30
2019-03-29T09:48:00.597Z,56.30
2019-03-29T09:50:29.240Z,55.70
2019-03-29T09:53:01.003Z,55.30
2019-03-29T09:55:31.474Z,55.60
2019-03-29T09:58:01.664Z,55.80
2019-03-29T10:00:30.306Z,55.50
2019-03-29T10:03:00.900Z,55.20
2019-03-29T10:05:31.475Z,55.20
2019-03-29T10:08:05.643Z,54.90
2019-03-29T10:10:37.371Z,55.30
2019-03-29T10:13:05.630Z,55.70
2019-03-29T10:15:33.769Z,56.10
2019-03-29T10:18:01.775Z,56.40
2019-03-29T10:20:29.957Z,56.30
2019-03-29T10:22:58.716Z,56.10
2019-03-29T10:25:28.900Z,56.30
2019-03-29T10:28:00.646Z,55.80
2019-03-29T10:30:38.410Z,55.40
2019-03-29T10:33:07.327Z,55.10
2019-03-29T10:35:50.969Z,54.70
2019-03-29T10:38:09.343Z,53.30
2019-03-29T10:40:38.440Z,53.20
2019-03-29T10:43:07.601Z,53.00
2019-03-29T10:45:40.053Z,52.50
2019-03-29T10:48:09.078Z,51.80
2019-03-29T10:50:39.137Z,51.90
2019-03-29T10:53:07.993Z,51.60
2019-03-29T10:55:39.855Z,51.00
2019-03-29T10:58:11.705Z,50.80
2019-03-29T11:00:46.261Z,51.20
2019-03-29T11:03:23.001Z,51.70
2019-03-29T11:05:53.583Z,52.10
2019-03-29T11:08:25.074Z,52.10
2019-03-29T11:10:55.197Z,52.10
2019-03-29T11:13:24.169Z,52.20
2019-03-29T11:15:54.715Z,52.70
2019-03-29T11:18:30.591Z,52.70
2019-03-29T11:21:03.735Z,52.70
2019-03-29T11:23:33.492Z,52.40
2019-03-29T11:26:02.645Z,52.80
2019-03-29T11:28:32.779Z,53.10
2019-03-29T11:31:02.071Z,53.40
2019-03-29T11:33:31.021Z,53.40
2019-03-29T11:36:00.182Z,53.30
2019-03-29T11:38:31.417Z,53.10
2019-03-29T11:41:00.089Z,52.80
2019-03-29T11:43:30.935Z,52.50
2019-03-29T11:46:00.713Z,52.70
2019-03-29T11:48:30.248Z,52.50
2019-03-29T11:51:00.697Z,52.30
2019-03-29T11:53:31.141Z,52.10
2019-03-29T11:56:03.156Z,51.70
2019-03-29T11:58:34.975Z,51.40
2019-03-29T12:01:06.938Z,51.20
2019-03-29T12:03:35.804Z,50.50
2019-03-29T12:06:04.779Z,49.90
2019-03-29T12:08:34.113Z,49.60
2019-03-29T12:11:06.822Z,50.00
2019-03-29T12:13:41.261Z,50.20
2019-03-29T12:16:07.683Z,50.70
2019-03-29T12:18:36.628Z,50.40
2019-03-29T12:21:05.369Z,50.20
2019-03-29T12:23:35.884Z,50.20
2019-03-29T12:26:06.518Z,50.00
2019-03-29T12:28:38.114Z,49.80
2019-03-29T12:31:07.305Z,49.40
2019-03-29T12:33:36.415Z,49.20
2019-03-29T12:36:08.845Z,49.10
2019-03-29T12:38:38.853Z,49.70
2019-03-29T12:41:07.802Z,49.90
2019-03-29T12:43:54.634Z,49.70
2019-03-29T12:46:14.360Z,49.30
2019-03-29T12:48:43.224Z,49.20
2019-03-29T12:51:13.851Z,49.40
2019-03-29T12:53:45.276Z,49.40
2019-03-29T12:56:14.543Z,49.80
2019-03-29T12:58:43.383Z,50.30
2019-03-29T13:01:13.013Z,50.30
2019-03-29T13:03:43.302Z,50.30
2019-03-29T13:06:12.672Z,50.20
2019-03-29T13:08:42.909Z,50.00
2019-03-29T13:11:12.624Z,50.10
2019-03-29T13:13:42.880Z,50.00
2019-03-29T13:16:13.474Z,50.20
2019-03-29T13:18:44.112Z,50.10
2019-03-29T13:21:13.072Z,50.00
2019-03-29T13:23:42.051Z,50.30
2019-03-29T13:26:11.292Z,50.40
2019-03-29T13:28:41.874Z,50.10
2019-03-29T13:31:10.970Z,50.40
2019-03-29T13:33:40.142Z,50.50
2019-03-29T13:36:09.542Z,50.40
2019-03-29T13:38:41.972Z,50.50
2019-03-29T13:41:11.898Z,50.50
2019-03-29T13:43:41.004Z,51.30
2019-03-29T13:46:11.231Z,51.80
2019-03-29T13:48:40.531Z,52.40
2019-03-29T13:51:12.354Z,52.80
2019-03-29T13:53:44.054Z,53.30
2019-03-29T13:56:13.091Z,54.00
2019-03-29T13:58:41.407Z,54.40
2019-03-29T14:01:10.287Z,54.30
2019-03-29T14:03:38.446Z,54.80
2019-03-29T14:06:07.873Z,55.40
2019-03-29T14:08:37.037Z,56.00
2019-03-29T14:11:06.822Z,56.20
2019-03-29T14:13:36.591Z,56.20
2019-03-29T14:16:05.060Z,56.90
2019-03-29T14:18:33.320Z,57.40
2019-03-29T14:21:01.604Z,57.70
2019-03-29T14:23:29.635Z,57.80
2019-03-29T14:25:57.604Z,57.30
2019-03-29T14:28:28.065Z,57.10
2019-03-29T14:30:57.083Z,56.90
2019-03-29T14:33:25.970Z,56.70
2019-03-29T14:35:54.213Z,56.30
2019-03-29T14:38:26.179Z,56.20
2019-03-29T14:40:54.127Z,56.00
2019-03-29T14:43:22.376Z,56.10
2019-03-29T14:45:52.156Z,55.50
2019-03-29T14:48:20.763Z,55.60
2019-03-29T14:50:48.732Z,55.70
2019-03-29T14:53:17.134Z,55.90
2019-03-29T14:55:47.133Z,56.20
2019-03-29T14:58:15.380Z,56.70
2019-03-29T15:00:48.247Z,56.80
2019-03-29T15:03:14.413Z,57.10
2019-03-29T15:05:45.316Z,57.20
2019-03-29T15:08:14.826Z,57.50
2019-03-29T15:10:45.613Z,58.00
2019-03-29T15:13:13.053Z,58.50
2019-03-29T15:15:41.113Z,58.80
2019-03-29T15:18:11.260Z,59.10
2019-03-29T15:20:52.767Z,59.00
2019-03-29T15:23:12.473Z,59.30
2019-03-29T15:25:40.973Z,59.30
2019-03-29T15:28:10.880Z,59.60
2019-03-29T15:30:39.285Z,59.80
2019-03-29T15:33:07.744Z,60.10
2019-03-29T15:35:35.869Z,60.40
2019-03-29T15:38:04.038Z,61.10
2019-03-29T15:40:32.551Z,61.20
2019-03-29T15:43:00.608Z,61.00
2019-03-29T15:45:29.587Z,61.20
2019-03-29T15:47:57.962Z,61.30
2019-03-29T15:50:26.123Z,61.30
2019-03-29T15:52:54.380Z,61.40
2019-03-29T15:55:23.864Z,61.50
2019-03-29T15:57:53.718Z,61.50
2019-03-29T16:00:22.327Z,61.70
2019-03-29T16:03:02.515Z,61.90
2019-03-29T16:05:31.909Z,62.20
2019-03-29T16:07:59.979Z,62.60
2019-03-29T16:10:28.321Z,62.60
2019-03-29T16:12:56.966Z,62.70
2019-03-29T16:15:34.205Z,62.90
2019-03-29T16:17:54.931Z,63.00
2019-03-29T16:20:23.235Z,63.40
2019-03-29T16:22:51.867Z,63.50
2019-03-29T16:25:19.859Z,64.20
2019-03-29T16:28:01.087Z,63.60
2019-03-29T16:30:32.095Z,63.60
2019-03-29T16:33:01.001Z,63.40
2019-03-29T16:35:29.291Z,63.50
2019-03-29T16:37:57.882Z,63.50
2019-03-29T16:40:25.942Z,63.60
2019-03-29T16:42:55.466Z,63.40
2019-03-29T16:45:23.603Z,63.50
2019-03-29T16:47:51.970Z,63.90
2019-03-29T16:50:19.912Z,64.10
2019-03-29T16:52:48.150Z,64.30
2019-03-29T16:55:17.477Z,64.50
2019-03-29T16:57:45.601Z,65.00
2019-03-29T17:00:13.898Z,65.20
2019-03-29T17:02:42.132Z,65.50
2019-03-29T17:05:10.431Z,65.60
2019-03-29T17:07:38.573Z,65.80
2019-03-29T17:10:06.889Z,65.90
2019-03-29T17:12:36.329Z,66.10
2019-03-29T17:15:05.306Z,66.20
2019-03-29T17:17:33.769Z,66.50
2019-03-29T17:20:03.201Z,66.70
2019-03-29T17:22:31.162Z,67.10
2019-03-29T17:25:00.359Z,67.40
2019-03-29T17:27:31.096Z,67.60
2019-03-29T17:30:04.015Z,68.00
2019-03-29T17:32:33.159Z,68.00
2019-03-29T17:35:01.716Z,69.10
2019-03-29T17:37:31.572Z,68.50
2019-03-29T17:40:04.135Z,68.80
2019-03-29T17:42:33.969Z,69.10
2019-03-29T17:45:02.232Z,69.30
2019-03-29T17:47:30.507Z,69.70
2019-03-29T17:50:01.640Z,70.00
2019-03-29T17:52:29.956Z,70.20
2019-03-29T17:54:58.125Z,70.30
2019-03-29T17:57:27.776Z,70.60
2019-03-29T17:59:56.065Z,70.70
2019-03-29T18:02:24.543Z,70.80
2019-03-29T18:04:52.656Z,71.60
2019-03-29T18:07:20.656Z,71.00
2019-03-29T18:09:48.661Z,71.10
2019-03-29T18:12:17.252Z,71.20
2019-03-29T18:14:48.238Z,71.20
2019-03-29T18:17:16.693Z,71.20
2019-03-29T18:19:44.685Z,71.50
2019-03-29T18:22:15.385Z,71.50
2019-03-29T18:24:43.731Z,71.60
2019-03-29T18:27:12.127Z,71.60
2019-03-29T18:29:40.432Z,71.70
2019-03-29T18:32:08.667Z,71.90
2019-03-29T18:34:41.424Z,72.70
2019-03-29T18:37:08.847Z,71.70
2019-03-29T18:39:38.987Z,72.10
2019-03-29T18:42:07.039Z,71.80
2019-03-29T18:44:35.563Z,72.00
2019-03-29T18:47:03.463Z,71.90
2019-03-29T18:49:31.716Z,71.90
2019-03-29T18:52:01.017Z,71.90
2019-03-29T18:54:29.268Z,71.80
2019-03-29T18:56:57.441Z,71.90
2019-03-29T18:59:25.377Z,71.90
2019-03-29T19:01:54.533Z,71.70
2019-03-29T19:04:22.795Z,71.70
2019-03-29T19:06:54.532Z,71.70
2019-03-29T19:09:24.202Z,71.60
2019-03-29T19:11:53.996Z,71.30
2019-03-29T19:14:22.001Z,71.30
2019-03-29T19:16:58.801Z,71.30
2019-03-29T19:19:19.607Z,71.30
2019-03-29T19:21:48.822Z,71.10
2019-03-29T19:24:16.865Z,71.00
2019-03-29T19:26:46.057Z,71.00
2019-03-29T19:29:14.313Z,70.90
2019-03-29T19:31:42.450Z,71.30
2019-03-29T19:34:10.948Z,71.50
2019-03-29T19:36:40.304Z,71.70
2019-03-29T19:39:08.201Z,72.00
2019-03-29T19:41:37.926Z,72.10
2019-03-29T19:44:06.016Z,72.40
2019-03-29T19:46:34.025Z,72.50
2019-03-29T19:49:01.943Z,72.40
2019-03-29T19:51:32.403Z,72.50
2019-03-29T19:54:07.318Z,72.60
2019-03-29T19:56:30.079Z,72.90
2019-03-29T19:58:59.957Z,73.00
2019-03-29T20:01:28.074Z,73.00
2019-03-29T20:03:57.056Z,72.80
2019-03-29T20:06:25.853Z,73.10
2019-03-29T20:08:54.101Z,73.40
2019-03-29T20:11:22.222Z,73.40
2019-03-29T20:13:50.284Z,73.40
2019-03-29T20:16:18.189Z,73.50
2019-03-29T20:18:46.631Z,73.40
2019-03-29T20:21:14.907Z,73.40
2019-03-29T20:23:43.575Z,73.50
2019-03-29T20:26:13.393Z,73.10
2019-03-29T20:28:41.458Z,73.40
2019-03-29T20:31:09.647Z,73.50
2019-03-29T20:33:39.346Z,73.60
2019-03-29T20:36:07.599Z,73.60
2019-03-29T20:38:35.686Z,73.70
2019-03-29T20:41:03.813Z,73.80
2019-03-29T20:43:31.748Z,73.70
2019-03-29T20:46:00.129Z,73.70
2019-03-29T20:48:28.263Z,73.70
2019-03-29T20:50:56.326Z,73.80
2019-03-29T20:53:26.061Z,73.70
2019-03-29T20:55:54.046Z,73.90
2019-03-29T20:58:22.012Z,74.70
2019-03-29T21:00:49.929Z,73.90
2019-03-29T21:03:17.758Z,74.00
2019-03-29T21:05:46.008Z,74.00
2019-03-29T21:08:14.333Z,73.90
2019-03-29T21:10:54.803Z,74.00
2019-03-29T21:13:11.994Z,74.00
2019-03-29T21:15:40.361Z,74.00
2019-03-29T21:18:08.708Z,74.20
2019-03-29T21:20:36.773Z,74.10
2019-03-29T21:23:05.071Z,74.20
2019-03-29T21:25:33.346Z,74.30
2019-03-29T21:28:01.341Z,74.10
2019-03-29T21:30:29.197Z,74.00
2019-03-29T21:32:59.005Z,74.00
2019-03-29T21:35:26.713Z,74.30
2019-03-29T21:37:54.801Z,74.50
2019-03-29T21:40:24.474Z,74.50
2019-03-29T21:42:53.550Z,74.70
2019-03-29T21:45:28.667Z,74.80
2019-03-29T21:48:01.991Z,74.80
2019-03-29T21:50:20.809Z,75.00
2019-03-29T21:52:48.749Z,75.00
2019-03-29T21:55:18.254Z,75.10
2019-03-29T21:57:48.916Z,75.20
2019-03-29T22:00:16.860Z,75.20
2019-03-29T22:02:45.690Z,75.40
2019-03-29T22:05:13.799Z,75.50
2019-03-29T22:07:41.785Z,75.60
2019-03-29T22:10:10.488Z,75.60
2019-03-29T22:12:38.906Z,75.90
2019-03-29T22:15:07.289Z,76.00
2019-03-29T22:17:35.368Z,76.00
2019-03-29T22:20:04.329Z,76.10
2019-03-29T22:22:32.396Z,76.20
2019-03-29T22:25:00.307Z,76.30
2019-03-29T22:27:28.906Z,76.50
2019-03-29T22:29:57.152Z,76.60
2019-03-29T22:32:27.091Z,76.80
2019-03-29T22:34:55.191Z,76.70
2019-03-29T22:37:23.182Z,76.70
2019-03-29T22:39:51.247Z,76.70
2019-03-29T22:42:19.228Z,76.70
2019-03-29T22:44:47.275Z,76.60
2019-03-29T22:47:15.425Z,76.50
2019-03-29T22:49:44.913Z,76.20
2019-03-29T22:52:13.585Z,76.20
2019-03-29T22:54:41.484Z,76.40
2019-03-29T22:57:09.435Z,76.20
2019-03-29T22:59:37.413Z,76.10
2019-03-29T23:02:05.474Z,76.00
2019-03-29T23:04:33.317Z,75.90
2019-03-29T23:07:01.262Z,75.90
2019-03-29T23:09:29.590Z,75.80
2019-03-29T23:11:57.511Z,75.80
2019-03-29T23:14:25.393Z,75.90
2019-03-29T23:16:53.761Z,76.00
2019-03-29T23:19:21.829Z,76.20
2019-03-29T23:21:49.662Z,76.60
2019-03-29T23:24:18.717Z,76.00
2019-03-29T23:26:47.191Z,76.20
2019-03-29T23:29:15.751Z,76.70
2019-03-29T23:31:45.861Z,77.30
2019-03-29T23:34:13.787Z,77.80
2019-03-29T23:36:42.724Z,78.20
2019-03-29T23:39:12.438Z,78.70
2019-03-29T23:41:40.522Z,80.10
2019-03-29T23:44:09.559Z,80.00
2019-03-29T23:46:38.571Z,80.50
2019-03-29T23:49:20.249Z,80.80
2019-03-29T23:51:49.697Z,81.30
2019-03-29T23:54:17.616Z,81.60
2019-03-29T23:56:47.798Z,82.00
2019-03-29T23:59:15.892Z,82.30
